createdAt,value
2018-07-05T00:00:28.819Z,93508.42
2018-07-05T00:03:08.006Z,93509.64
2018-07-05T00:05:47.181Z,93514.05
2018-07-05T00:08:26.420Z,93513.14
2018-07-05T00:11:05.733Z,93512.17
2018-07-05T00:13:44.909Z,93512.17
2018-07-05T00:16:24.218Z,93513.54
2018-07-05T00:19:03.451Z,93522.04
2018-07-05T00:21:42.693Z,93525.78
2018-07-05T00:24:21.837Z,93523.65
2018-07-05T00:27:01.161Z,93534.12
2018-07-05T00:29:40.377Z,93536.89
2018-07-05T00:32:19.630Z,93538.32
2018-07-05T00:34:58.810Z,93532.01
2018-07-05T00:37:38.051Z,93533.22
2018-07-05T00:40:17.350Z,93539.28
2018-07-05T00:42:56.493Z,93534.31
2018-07-05T00:45:35.626Z,93536.45
2018-07-05T00:48:14.795Z,93535.84
2018-07-05T00:50:53.753Z,93533.12
2018-07-05T00:53:33.049Z,93527.88
2018-07-05T00:56:12.198Z,93533.36
2018-07-05T00:58:51.505Z,93537.89
2018-07-05T01:01:30.690Z,93544.10
2018-07-05T01:04:10.844Z,93540.78
2018-07-05T01:06:50.047Z,93538.88
2018-07-05T01:09:29.346Z,93541.03
2018-07-05T01:12:08.438Z,93535.46
2018-07-05T01:14:47.745Z,93536.63
2018-07-05T01:17:27.006Z,93533.55
2018-07-05T01:20:06.161Z,93525.34
2018-07-05T01:22:45.450Z,93519.06
2018-07-05T01:25:24.518Z,93520.94
2018-07-05T01:28:03.699Z,93522.23
2018-07-05T01:30:42.658Z,93518.58
2018-07-05T01:33:21.813Z,93524.53
2018-07-05T01:36:00.937Z,93522.64
2018-07-05T01:38:40.348Z,93525.37
2018-07-05T01:41:19.583Z,93532.40
2018-07-05T01:43:58.824Z,93529.42
2018-07-05T01:46:37.967Z,93528.38
2018-07-05T01:49:17.353Z,93528.38
2018-07-05T01:51:56.596Z,93533.51
2018-07-05T01:54:35.781Z,93529.81
2018-07-05T01:57:14.812Z,93530.30
2018-07-05T01:59:53.991Z,93535.84
2018-07-05T02:02:33.152Z,93531.22
2018-07-05T02:05:12.385Z,93528.38
2018-07-05T02:07:51.672Z,93530.77
2018-07-05T02:10:30.863Z,93534.44
2018-07-05T02:13:10.132Z,93535.86
2018-07-05T02:15:49.302Z,93534.70
2018-07-05T02:18:28.345Z,93539.66
2018-07-05T02:21:07.634Z,93533.84
2018-07-05T02:23:46.883Z,93532.78
2018-07-05T02:26:25.949Z,93527.05
2018-07-05T02:29:05.265Z,93531.67
2018-07-05T02:31:44.488Z,93525.70
2018-07-05T02:34:23.661Z,93531.87
2018-07-05T02:37:02.917Z,93529.56
2018-07-05T02:39:47.742Z,93537.17
2018-07-05T02:42:26.786Z,93538.73
2018-07-05T02:45:05.966Z,93542.42
2018-07-05T02:47:45.079Z,93538.68
2018-07-05T02:50:24.544Z,93544.75
2018-07-05T02:53:03.745Z,93543.18
2018-07-05T02:55:42.823Z,93539.35
2018-07-05T02:58:21.895Z,93544.83
2018-07-05T03:01:01.110Z,93539.70
2018-07-05T03:03:40.219Z,93536.60
2018-07-05T03:06:19.501Z,93534.82
2018-07-05T03:08:58.757Z,93528.95
2018-07-05T03:11:37.975Z,93527.64
2018-07-05T03:14:17.123Z,93528.13
2018-07-05T03:16:56.349Z,93528.39
2018-07-05T03:19:35.509Z,93527.70
2018-07-05T03:22:14.717Z,93529.27
2018-07-05T03:24:53.993Z,93525.34
2018-07-05T03:27:33.595Z,93528.16
2018-07-05T03:30:12.890Z,93526.48
2018-07-05T03:32:52.270Z,93531.19
2018-07-05T03:35:31.370Z,93536.55
2018-07-05T03:38:10.488Z,93541.80
2018-07-05T03:40:49.829Z,93540.94
2018-07-05T03:43:28.936Z,93542.80
2018-07-05T03:46:08.036Z,93541.59
2018-07-05T03:48:47.318Z,93545.73
2018-07-05T03:51:26.340Z,93542.08
2018-07-05T03:54:05.448Z,93541.78
2018-07-05T03:56:44.613Z,93531.27
2018-07-05T03:59:23.933Z,93528.38
2018-07-05T04:02:03.114Z,93534.05
2018-07-05T04:04:42.466Z,93535.78
2018-07-05T04:07:21.627Z,93537.24
2018-07-05T04:10:00.895Z,93539.14
2018-07-05T04:12:39.936Z,93541.16
2018-07-05T04:15:19.249Z,93545.55
2018-07-05T04:17:58.348Z,93543.89
2018-07-05T04:20:37.554Z,93548.77
2018-07-05T04:23:16.772Z,93556.14
2018-07-05T04:25:56.078Z,93556.84
2018-07-05T04:28:35.357Z,93555.53
2018-07-05T04:31:14.440Z,93556.11
2018-07-05T04:33:53.799Z,93557.92
2018-07-05T04:36:33.036Z,93556.44
2018-07-05T04:39:12.418Z,93547.55
2018-07-05T04:41:51.832Z,93565.65
2018-07-05T04:44:31.076Z,93570.46
2018-07-05T04:47:10.238Z,93579.64
2018-07-05T04:49:49.506Z,93583.97
2018-07-05T04:52:28.640Z,93570.75
2018-07-05T04:55:08.110Z,93569.32
2018-07-05T04:57:47.515Z,93568.42
2018-07-05T05:00:26.854Z,93569.31
2018-07-05T05:03:06.151Z,93573.23
2018-07-05T05:05:45.711Z,93569.81
2018-07-05T05:08:24.940Z,93573.21
2018-07-05T05:11:04.303Z,93568.78
2018-07-05T05:13:43.471Z,93564.45
2018-07-05T05:16:23.761Z,93565.80
2018-07-05T05:19:03.037Z,93566.45
2018-07-05T05:21:42.426Z,93559.81
2018-07-05T05:24:21.510Z,93564.33
2018-07-05T05:27:00.900Z,93561.16
2018-07-05T05:29:40.313Z,93563.43
2018-07-05T05:32:19.411Z,93570.38
2018-07-05T05:34:58.664Z,93569.06
2018-07-05T05:37:38.062Z,93575.20
2018-07-05T05:40:17.190Z,93571.23
2018-07-05T05:42:56.513Z,93573.30
2018-07-05T05:45:35.510Z,93575.86
2018-07-05T05:48:14.787Z,93573.30
2018-07-05T05:50:53.828Z,93576.06
2018-07-05T05:53:33.078Z,93564.98
2018-07-05T05:56:12.181Z,93577.77
2018-07-05T05:58:51.632Z,93574.61
2018-07-05T06:01:30.820Z,93572.48
2018-07-05T06:04:10.275Z,93570.98
2018-07-05T06:06:49.513Z,93576.24
2018-07-05T06:09:28.900Z,93577.13
2018-07-05T06:12:08.128Z,93575.94
2018-07-05T06:14:47.528Z,93582.20
2018-07-05T06:17:26.768Z,93580.56
2018-07-05T06:20:06.248Z,93587.49
2018-07-05T06:22:45.453Z,93587.44
2018-07-05T06:25:24.976Z,93590.94
2018-07-05T06:28:04.115Z,93590.08
2018-07-05T06:30:43.346Z,93587.44
2018-07-05T06:33:22.548Z,93590.94
2018-07-05T06:36:02.006Z,93592.55
2018-07-05T06:38:41.266Z,93593.63
2018-07-05T06:41:20.403Z,93590.06
2018-07-05T06:43:59.570Z,93583.77
2018-07-05T06:46:38.900Z,93585.23
2018-07-05T06:49:18.023Z,93587.89
2018-07-05T06:51:57.316Z,93587.51
2018-07-05T06:54:36.410Z,93597.89
2018-07-05T06:57:15.610Z,93594.61
2018-07-05T06:59:54.942Z,93591.14
2018-07-05T07:02:34.212Z,93588.97
2018-07-05T07:05:13.683Z,93585.66
2018-07-05T07:07:53.106Z,93586.68
2018-07-05T07:10:32.307Z,93585.03
2018-07-05T07:13:11.769Z,93591.17
2018-07-05T07:15:50.775Z,93592.69
2018-07-05T07:18:30.385Z,93592.98
2018-07-05T07:21:09.727Z,93591.64
2018-07-05T07:23:48.977Z,93589.04
2018-07-05T07:26:28.380Z,93597.55
2018-07-05T07:29:07.959Z,93594.24
2018-07-05T07:31:47.230Z,93596.42
2018-07-05T07:34:26.669Z,93595.82
2018-07-05T07:37:05.972Z,93594.02
2018-07-05T07:39:45.037Z,93592.70
2018-07-05T07:42:11.875Z,93598.37
2018-07-05T07:44:38.699Z,93586.27
2018-07-05T07:47:05.552Z,93589.98
2018-07-05T07:49:32.490Z,93580.86
2018-07-05T07:51:59.224Z,93582.33
2018-07-05T07:54:25.965Z,93574.53
2018-07-05T07:56:52.747Z,93578.64
2018-07-05T07:59:19.469Z,93571.84
2018-07-05T08:01:46.272Z,93574.78
2018-07-05T08:04:13.037Z,93571.03
2018-07-05T08:06:39.979Z,93569.00
2018-07-05T08:09:06.897Z,93568.07
2018-07-05T08:11:33.932Z,93573.67
2018-07-05T08:14:00.746Z,93563.45
2018-07-05T08:16:27.548Z,93561.03
2018-07-05T08:18:54.412Z,93558.61
2018-07-05T08:21:21.261Z,93568.41
2018-07-05T08:23:48.059Z,93564.48
2018-07-05T08:26:14.836Z,93563.45
2018-07-05T08:28:41.821Z,93562.13
2018-07-05T08:31:08.701Z,93563.92
2018-07-05T08:33:35.592Z,93566.08
2018-07-05T08:36:02.559Z,93561.84
2018-07-05T08:38:29.652Z,93558.42
2018-07-05T08:40:56.798Z,93556.14
2018-07-05T08:43:23.885Z,93559.92
2018-07-05T08:45:51.105Z,93554.92
2018-07-05T08:48:18.070Z,93545.55
2018-07-05T08:50:45.028Z,93547.11
2018-07-05T08:53:12.527Z,93550.05
2018-07-05T08:55:39.488Z,93547.88
2018-07-05T08:58:06.399Z,93549.75
2018-07-05T09:00:33.430Z,93549.02
2018-07-05T09:03:00.363Z,93543.57
2018-07-05T09:05:27.326Z,93548.34
2018-07-05T09:07:54.298Z,93543.13
2018-07-05T09:10:21.270Z,93547.89
2018-07-05T09:12:48.223Z,93543.09
2018-07-05T09:15:15.178Z,93543.52
2018-07-05T09:17:42.069Z,93542.88
2018-07-05T09:20:08.939Z,93540.38
2018-07-05T09:22:35.969Z,93531.53
2018-07-05T09:25:02.833Z,93542.33
2018-07-05T09:27:29.697Z,93533.90
2018-07-05T09:29:56.612Z,93527.03
2018-07-05T09:32:23.588Z,93527.50
2018-07-05T09:34:50.755Z,93526.59
2018-07-05T09:37:17.846Z,93524.05
2018-07-05T09:39:44.846Z,93517.09
2018-07-05T09:42:11.771Z,93518.72
2018-07-05T09:44:38.720Z,93517.29
2018-07-05T09:47:05.596Z,93510.26
2018-07-05T09:49:32.544Z,93507.28
2018-07-05T09:51:59.694Z,93509.53
2018-07-05T09:54:26.560Z,93507.17
2018-07-05T09:56:53.579Z,93504.23
2018-07-05T09:59:20.711Z,93508.91
2018-07-05T10:01:47.657Z,93498.09
2018-07-05T10:04:14.596Z,93510.05
2018-07-05T10:06:41.691Z,93507.84
2018-07-05T10:09:08.468Z,93499.55
2018-07-05T10:11:35.412Z,93501.02
2018-07-05T10:14:02.316Z,93504.39
2018-07-05T10:16:29.079Z,93501.20
2018-07-05T10:18:56.124Z,93507.17
2018-07-05T10:21:23.032Z,93497.91
2018-07-05T10:23:49.863Z,93499.57
2018-07-05T10:26:16.696Z,93490.20
2018-07-05T10:28:56.035Z,93488.76
2018-07-05T10:31:35.348Z,93495.75
2018-07-05T10:34:02.274Z,93481.24
2018-07-05T10:36:29.429Z,93475.47
2018-07-05T10:38:56.404Z,93474.22
2018-07-05T10:41:35.786Z,93475.77
2018-07-05T10:44:14.847Z,93472.95
2018-07-05T10:46:54.147Z,93472.03
2018-07-05T10:49:33.383Z,93473.89
2018-07-05T10:52:12.585Z,93474.76
2018-07-05T10:54:51.862Z,93469.30
2018-07-05T10:57:31.058Z,93472.84
2018-07-05T11:00:10.393Z,93465.02
2018-07-05T11:02:49.596Z,93465.45
2018-07-05T11:05:28.914Z,93464.03
2018-07-05T11:08:08.132Z,93469.14
2018-07-05T11:10:47.270Z,93465.06
2018-07-05T11:13:26.653Z,93458.45
2018-07-05T11:16:05.946Z,93459.13
2018-07-05T11:18:45.381Z,93460.64
2018-07-05T11:21:24.531Z,93454.42
2018-07-05T11:24:04.088Z,93445.98
2018-07-05T11:26:43.432Z,93448.12
2018-07-05T11:29:22.822Z,93441.38
2018-07-05T11:32:02.247Z,93439.67
2018-07-05T11:34:41.846Z,93454.20
2018-07-05T11:37:21.160Z,93445.56
2018-07-05T11:40:00.416Z,93434.61
2018-07-05T11:42:39.889Z,93434.40
2018-07-05T11:45:19.194Z,93426.98
2018-07-05T11:47:58.561Z,93423.86
2018-07-05T11:50:38.088Z,93420.91
2018-07-05T11:53:17.464Z,93418.04
2018-07-05T11:55:56.582Z,93416.77
2018-07-05T11:58:35.785Z,93416.61
2018-07-05T12:01:15.326Z,93417.81
2018-07-05T12:03:54.641Z,93416.07
2018-07-05T12:06:34.054Z,93422.22
2018-07-05T12:09:13.454Z,93421.97
2018-07-05T12:11:52.760Z,93409.70
2018-07-05T12:14:31.869Z,93421.48
2018-07-05T12:17:11.105Z,93418.23
2018-07-05T12:19:50.470Z,93420.56
2018-07-05T12:22:29.956Z,93418.02
2018-07-05T12:25:09.171Z,93418.26
2018-07-05T12:27:48.244Z,93404.98
2018-07-05T12:30:27.437Z,93403.97
2018-07-05T12:33:06.719Z,93399.22
2018-07-05T12:35:45.883Z,93400.16
2018-07-05T12:38:25.018Z,93399.84
2018-07-05T12:41:04.210Z,93398.39
2018-07-05T12:43:43.523Z,93399.66
2018-07-05T12:46:22.996Z,93392.63
2018-07-05T12:49:02.189Z,93394.80
2018-07-05T12:51:41.261Z,93396.34
2018-07-05T12:54:20.944Z,93399.62
2018-07-05T12:57:00.498Z,93393.59
2018-07-05T12:59:40.018Z,93397.17
2018-07-05T13:02:19.182Z,93388.86
2018-07-05T13:04:58.582Z,93394.89
2018-07-05T13:07:37.852Z,93393.16
2018-07-05T13:10:17.266Z,93386.69
2018-07-05T13:12:56.807Z,93386.57
2018-07-05T13:15:36.428Z,93376.80
2018-07-05T13:18:15.774Z,93378.48
2018-07-05T13:20:55.267Z,93376.03
2018-07-05T13:23:34.565Z,93362.97
2018-07-05T13:26:14.755Z,93358.33
2018-07-05T13:28:53.825Z,93354.73
2018-07-05T13:31:33.101Z,93363.36
2018-07-05T13:34:12.182Z,93356.36
2018-07-05T13:36:51.807Z,93361.81
2018-07-05T13:39:31.030Z,93359.05
2018-07-05T13:42:10.452Z,93356.05
2018-07-05T13:44:49.764Z,93354.11
2018-07-05T13:47:29.159Z,93359.25
2018-07-05T13:50:08.526Z,93358.74
2018-07-05T13:52:47.887Z,93362.02
2018-07-05T13:55:27.144Z,93356.99
2018-07-05T13:58:06.232Z,93357.31
2018-07-05T14:00:45.760Z,93362.64
2018-07-05T14:03:24.952Z,93357.20
2018-07-05T14:06:04.118Z,93360.98
2018-07-05T14:08:43.368Z,93367.83
2018-07-05T14:11:22.611Z,93365.06
2018-07-05T14:14:01.949Z,93366.50
2018-07-05T14:16:41.057Z,93357.09
2018-07-05T14:19:20.477Z,93357.92
2018-07-05T14:21:59.659Z,93358.73
2018-07-05T14:24:39.074Z,93368.00
2018-07-05T14:27:18.322Z,93358.20
2018-07-05T14:29:57.584Z,93358.67
2018-07-05T14:32:36.863Z,93360.00
2018-07-05T14:35:16.254Z,93362.77
2018-07-05T14:37:55.334Z,93360.45
2018-07-05T14:40:34.748Z,93354.55
2018-07-05T14:43:14.029Z,93346.49
2018-07-05T14:45:53.232Z,93348.73
2018-07-05T14:48:32.678Z,93355.90
2018-07-05T14:51:11.948Z,93351.20
2018-07-05T14:53:51.244Z,93350.48
2018-07-05T14:56:30.805Z,93353.97
2018-07-05T14:59:09.952Z,93349.34
2018-07-05T15:01:49.615Z,93353.77
2018-07-05T15:04:28.891Z,93354.78
2018-07-05T15:07:08.458Z,93352.77
2018-07-05T15:09:47.731Z,93345.33
2018-07-05T15:12:27.030Z,93345.64
2018-07-05T15:15:06.522Z,93346.20
2018-07-05T15:17:45.750Z,93343.50
2018-07-05T15:20:25.058Z,93344.54
2018-07-05T15:23:04.485Z,93336.62
2018-07-05T15:25:43.776Z,93331.39
2018-07-05T15:28:23.048Z,93338.11
2018-07-05T15:31:02.271Z,93333.95
2018-07-05T15:33:41.519Z,93332.66
2018-07-05T15:36:20.816Z,93329.05
2018-07-05T15:39:00.184Z,93325.46
2018-07-05T15:41:39.321Z,93325.39
2018-07-05T15:44:18.638Z,93317.39
2018-07-05T15:46:58.067Z,93323.17
2018-07-05T15:49:37.422Z,93320.95
2018-07-05T15:52:16.684Z,93317.94
2018-07-05T15:54:56.742Z,93313.29
2018-07-05T15:57:36.125Z,93314.54
2018-07-05T16:00:15.351Z,93312.71
2018-07-05T16:02:54.662Z,93319.91
2018-07-05T16:05:34.031Z,93316.58
2018-07-05T16:08:13.296Z,93315.64
2018-07-05T16:10:52.412Z,93310.59
2018-07-05T16:13:31.862Z,93310.08
2018-07-05T16:16:10.956Z,93313.28
2018-07-05T16:18:50.063Z,93314.09
2018-07-05T16:21:29.118Z,93310.30
2018-07-05T16:24:08.548Z,93311.63
2018-07-05T16:26:47.995Z,93307.58
2018-07-05T16:29:27.312Z,93312.38
2018-07-05T16:32:06.623Z,93317.28
2018-07-05T16:34:45.698Z,93316.50
2018-07-05T16:37:25.037Z,93314.50
2018-07-05T16:40:04.788Z,93313.19
2018-07-05T16:42:44.113Z,93310.25
2018-07-05T16:45:23.478Z,93313.12
2018-07-05T16:48:02.773Z,93306.15
2018-07-05T16:50:41.863Z,93311.00
2018-07-05T16:53:21.103Z,93307.73
2018-07-05T16:56:00.140Z,93308.08
2018-07-05T16:58:39.449Z,93308.98
2018-07-05T17:01:18.809Z,93310.09
2018-07-05T17:03:57.920Z,93312.23
2018-07-05T17:06:37.263Z,93311.23
2018-07-05T17:09:16.470Z,93314.78
2018-07-05T17:11:56.611Z,93317.88
2018-07-05T17:14:36.043Z,93315.41
2018-07-05T17:17:15.462Z,93311.77
2018-07-05T17:19:54.556Z,93311.69
2018-07-05T17:22:33.618Z,93319.94
2018-07-05T17:25:12.770Z,93317.19
2018-07-05T17:27:52.002Z,93314.28
2018-07-05T17:30:31.085Z,93317.48
2018-07-05T17:33:10.497Z,93310.53
2018-07-05T17:35:49.784Z,93308.89
2018-07-05T17:38:29.106Z,93309.09
2018-07-05T17:41:08.044Z,93304.80
2018-07-05T17:43:47.451Z,93304.30
2018-07-05T17:46:26.760Z,93307.88
2018-07-05T17:49:06.052Z,93305.20
2018-07-05T17:51:45.357Z,93310.77
2018-07-05T17:54:24.563Z,93312.89
2018-07-05T17:57:03.772Z,93310.39
2018-07-05T17:59:42.794Z,93310.84
2018-07-05T18:02:22.042Z,93303.06
2018-07-05T18:05:01.190Z,93301.78
2018-07-05T18:07:40.510Z,93305.88
2018-07-05T18:10:19.611Z,93303.47
2018-07-05T18:12:59.029Z,93307.53
2018-07-05T18:15:38.190Z,93303.97
2018-07-05T18:18:17.669Z,93305.51
2018-07-05T18:20:56.947Z,93307.30
2018-07-05T18:23:36.451Z,93306.86
2018-07-05T18:26:15.933Z,93313.04
2018-07-05T18:28:55.206Z,93310.49
2018-07-05T18:31:34.620Z,93311.07
2018-07-05T18:34:14.009Z,93312.86
2018-07-05T18:36:53.348Z,93316.24
2018-07-05T18:39:32.396Z,93314.00
2018-07-05T18:42:11.800Z,93320.52
2018-07-05T18:44:51.309Z,93323.21
2018-07-05T18:47:30.466Z,93326.27
2018-07-05T18:50:09.810Z,93321.11
2018-07-05T18:52:48.888Z,93335.36
2018-07-05T18:55:28.401Z,93330.69
2018-07-05T18:58:07.486Z,93338.02
2018-07-05T19:00:46.680Z,93331.48
2018-07-05T19:03:26.040Z,93331.23
2018-07-05T19:06:05.470Z,93339.75
2018-07-05T19:08:44.849Z,93336.17
2018-07-05T19:11:24.444Z,93336.77
2018-07-05T19:14:03.653Z,93340.80
2018-07-05T19:16:42.978Z,93337.48
2018-07-05T19:19:22.294Z,93337.93
2018-07-05T19:22:01.554Z,93334.80
2018-07-05T19:24:41.082Z,93336.70
2018-07-05T19:27:20.533Z,93337.11
2018-07-05T19:29:59.811Z,93335.88
2018-07-05T19:32:39.060Z,93335.55
2018-07-05T19:35:18.322Z,93333.97
2018-07-05T19:37:57.384Z,93336.41
2018-07-05T19:40:36.646Z,93334.55
2018-07-05T19:43:15.850Z,93339.74
2018-07-05T19:45:55.004Z,93345.27
2018-07-05T19:48:34.298Z,93342.09
2018-07-05T19:51:13.618Z,93341.16
2018-07-05T19:53:52.970Z,93345.86
2018-07-05T19:56:32.141Z,93341.33
2018-07-05T19:59:11.458Z,93348.25
2018-07-05T20:01:50.729Z,93348.85
2018-07-05T20:04:30.155Z,93346.16
2018-07-05T20:07:09.286Z,93346.66
2018-07-05T20:09:48.727Z,93342.17
2018-07-05T20:12:27.880Z,93341.81
2018-07-05T20:15:07.229Z,93344.44
2018-07-05T20:17:46.610Z,93339.62
2018-07-05T20:20:25.771Z,93334.57
2018-07-05T20:23:04.977Z,93338.45
2018-07-05T20:25:44.250Z,93338.08
2018-07-05T20:28:23.425Z,93339.89
2018-07-05T20:31:02.527Z,93337.33
2018-07-05T20:33:41.722Z,93340.09
2018-07-05T20:36:20.880Z,93345.50
2018-07-05T20:39:00.019Z,93342.18
2018-07-05T20:41:39.215Z,93340.77
2018-07-05T20:44:18.586Z,93341.46
2018-07-05T20:46:57.963Z,93343.75
2018-07-05T20:49:37.147Z,93343.06
2018-07-05T20:52:16.471Z,93343.95
2018-07-05T20:54:55.597Z,93347.88
2018-07-05T20:57:35.028Z,93348.77
2018-07-05T21:00:14.219Z,93340.37
2018-07-05T21:02:53.474Z,93347.75
2018-07-05T21:05:32.651Z,93356.16
2018-07-05T21:08:11.947Z,93348.06
2018-07-05T21:10:51.023Z,93352.28
2018-07-05T21:13:30.438Z,93351.36
2018-07-05T21:16:09.682Z,93349.72
2018-07-05T21:18:48.912Z,93348.73
2018-07-05T21:21:27.946Z,93351.42
2018-07-05T21:24:07.355Z,93356.95
2018-07-05T21:26:46.636Z,93356.15
2018-07-05T21:29:25.752Z,93360.13
2018-07-05T21:32:05.097Z,93355.30
2018-07-05T21:34:44.234Z,93358.38
2018-07-05T21:37:23.536Z,93351.83
2018-07-05T21:40:02.819Z,93354.70
2018-07-05T21:42:41.953Z,93357.58
2018-07-05T21:45:21.217Z,93361.18
2018-07-05T21:48:00.443Z,93365.99
2018-07-05T21:50:39.708Z,93367.81
2018-07-05T21:53:18.923Z,93367.94
2018-07-05T21:55:58.086Z,93365.41
2018-07-05T21:58:37.349Z,93363.77
2018-07-05T22:01:16.585Z,93362.14
2018-07-05T22:03:55.867Z,93365.86
2018-07-05T22:06:35.415Z,93361.93
2018-07-05T22:09:14.661Z,93362.67
2018-07-05T22:11:54.151Z,93358.17
2018-07-05T22:14:33.345Z,93356.49
2018-07-05T22:17:18.090Z,93357.80
2018-07-05T22:20:03.097Z,93360.22
2018-07-05T22:22:48.153Z,93354.53
2018-07-05T22:25:33.014Z,93362.22
2018-07-05T22:28:17.728Z,93360.46
2018-07-05T22:31:02.189Z,93365.48
2018-07-05T22:33:41.196Z,93354.31
2018-07-05T22:36:20.506Z,93360.98
2018-07-05T22:38:59.643Z,93354.72
2018-07-05T22:41:38.824Z,93351.48
2018-07-05T22:44:18.236Z,93350.55
2018-07-05T22:46:57.491Z,93355.91
2018-07-05T22:49:36.664Z,93358.19
2018-07-05T22:52:15.839Z,93359.53
2018-07-05T22:54:55.029Z,93361.21
2018-07-05T22:57:34.251Z,93356.67
2018-07-05T23:00:13.491Z,93356.95
2018-07-05T23:02:52.660Z,93351.87
2018-07-05T23:05:31.875Z,93342.01
2018-07-05T23:08:11.209Z,93350.80
2018-07-05T23:10:50.471Z,93344.44
2018-07-05T23:13:29.569Z,93343.59
2018-07-05T23:16:08.858Z,93341.58
2018-07-05T23:18:48.100Z,93343.74
2018-07-05T23:21:27.336Z,93347.55
2018-07-05T23:24:06.581Z,93349.83
2018-07-05T23:26:45.717Z,93347.73
2018-07-05T23:29:24.880Z,93344.12
2018-07-05T23:32:04.128Z,93334.76
2018-07-05T23:34:43.512Z,93336.06
2018-07-05T23:37:22.730Z,93342.61
2018-07-05T23:40:01.852Z,93343.80
2018-07-05T23:42:41.109Z,93341.17
2018-07-05T23:45:20.117Z,93339.89
2018-07-05T23:47:59.319Z,93337.54
2018-07-05T23:50:38.708Z,93340.88
2018-07-05T23:53:17.887Z,93344.92
2018-07-05T23:55:56.868Z,93340.69
2018-07-05T23:58:36.203Z,93335.23
